createdAt,value
2019-05-28T00:00:02.406Z,9.60
2019-05-28T00:00:58.367Z,9.40
2019-05-28T00:01:58.385Z,9.50
2019-05-28T00:02:58.354Z,8.40
2019-05-28T00:03:58.333Z,10.10
2019-05-28T00:04:58.344Z,8.60
2019-05-28T00:05:58.311Z,8.10
2019-05-28T00:06:58.298Z,9.80
2019-05-28T00:07:58.289Z,9.80
2019-05-28T00:08:58.278Z,9.90
2019-05-28T00:09:58.290Z,9.70
2019-05-28T00:10:58.253Z,10.10
2019-05-28T00:11:58.241Z,9.00
2019-05-28T00:12:58.235Z,10.10
2019-05-28T00:13:58.243Z,9.40
2019-05-28T00:14:58.208Z,10.70
2019-05-28T00:15:58.201Z,10.20
2019-05-28T00:16:58.185Z,10.60
2019-05-28T00:17:58.180Z,10.50
2019-05-28T00:18:58.188Z,10.60
2019-05-28T00:19:58.151Z,9.70
2019-05-28T00:20:58.140Z,9.40
2019-05-28T00:21:58.159Z,10.00
2019-05-28T00:22:58.125Z,10.40
2019-05-28T00:23:58.108Z,9.40
2019-05-28T00:24:58.102Z,10.50
2019-05-28T00:25:58.085Z,10.00
2019-05-28T00:26:58.113Z,10.40
2019-05-28T00:27:58.083Z,9.60
2019-05-28T00:28:58.055Z,10.60
2019-05-28T00:29:58.058Z,10.00
2019-05-28T00:30:58.033Z,9.80
2019-05-28T00:31:58.026Z,11.00
2019-05-28T00:32:58.009Z,10.70
2019-05-28T00:33:58.023Z,11.50
2019-05-28T00:34:57.982Z,11.50
2019-05-28T00:35:57.973Z,10.90
2019-05-28T00:36:57.962Z,10.10
2019-05-28T00:37:57.949Z,10.40
2019-05-28T00:38:57.971Z,10.30
2019-05-28T00:39:57.927Z,10.40
2019-05-28T00:40:57.916Z,10.60
2019-05-28T00:41:57.905Z,10.60
2019-05-28T00:42:57.892Z,10.60
2019-05-28T00:43:57.909Z,10.90
2019-05-28T00:44:57.872Z,11.30
2019-05-28T00:45:57.859Z,11.20
2019-05-28T00:46:57.870Z,10.90
2019-05-28T00:47:57.837Z,10.20
2019-05-28T00:48:57.851Z,10.00
2019-05-28T00:49:57.815Z,9.70
2019-05-28T00:50:57.829Z,10.40
2019-05-28T00:51:57.796Z,10.40
2019-05-28T00:52:57.789Z,10.00
2019-05-28T00:53:57.785Z,10.40
2019-05-28T00:54:57.757Z,11.00
2019-05-28T00:55:57.746Z,9.80
2019-05-28T00:56:57.762Z,9.60
2019-05-28T00:57:57.722Z,9.90
2019-05-28T00:58:57.712Z,10.20
2019-05-28T00:59:57.702Z,11.10
2019-05-28T01:00:57.690Z,10.20
2019-05-28T01:01:57.703Z,10.30
2019-05-28T01:02:57.667Z,10.70
2019-05-28T01:03:57.657Z,11.20
2019-05-28T01:04:57.672Z,9.90
2019-05-28T01:05:57.632Z,9.60
2019-05-28T01:06:57.645Z,9.70
2019-05-28T01:07:57.614Z,9.60
2019-05-28T01:08:57.600Z,10.20
2019-05-28T01:09:57.626Z,9.60
2019-05-28T01:10:57.577Z,11.30
2019-05-28T01:11:57.568Z,10.40
2019-05-28T01:12:57.556Z,9.00
2019-05-28T01:13:57.544Z,8.60
2019-05-28T01:14:57.568Z,8.30
2019-05-28T01:15:57.522Z,8.80
2019-05-28T01:16:57.513Z,9.10
2019-05-28T01:17:57.502Z,9.40
2019-05-28T01:18:57.489Z,10.00
2019-05-28T01:19:57.499Z,9.90
2019-05-28T01:20:57.466Z,10.00
2019-05-28T01:21:57.454Z,8.70
2019-05-28T01:22:57.445Z,9.20
2019-05-28T01:23:57.469Z,8.40
2019-05-28T01:24:57.422Z,8.50
2019-05-28T01:25:57.413Z,9.60
2019-05-28T01:26:57.399Z,9.10
2019-05-28T01:27:57.387Z,9.20
2019-05-28T01:28:57.399Z,8.30
2019-05-28T01:29:57.364Z,8.60
2019-05-28T01:31:00.600Z,8.90
2019-05-28T01:31:57.364Z,7.90
2019-05-28T01:32:57.330Z,8.10
2019-05-28T01:33:57.320Z,8.20
2019-05-28T01:34:57.328Z,9.50
2019-05-28T01:35:57.299Z,9.00
2019-05-28T01:36:57.284Z,8.40
2019-05-28T01:37:57.273Z,9.60
2019-05-28T01:38:57.262Z,8.70
2019-05-28T01:39:57.273Z,8.90
2019-05-28T01:40:57.242Z,9.40
2019-05-28T01:41:57.228Z,10.40
2019-05-28T01:42:57.219Z,10.10
2019-05-28T01:43:57.228Z,9.10
2019-05-28T01:44:57.195Z,8.90
2019-05-28T01:45:57.183Z,8.80
2019-05-28T01:46:57.195Z,9.50
2019-05-28T01:47:57.756Z,9.70
2019-05-28T01:48:57.154Z,9.50
2019-05-28T01:49:57.137Z,9.80
2019-05-28T01:50:57.152Z,10.00
2019-05-28T01:51:57.121Z,10.90
2019-05-28T01:52:57.105Z,10.50
2019-05-28T01:53:57.096Z,10.60
2019-05-28T01:54:57.099Z,11.30
2019-05-28T01:55:57.069Z,10.30
2019-05-28T01:56:57.059Z,10.40
2019-05-28T01:57:57.048Z,11.30
2019-05-28T01:58:57.038Z,11.00
2019-05-28T01:59:57.087Z,10.70
2019-05-28T02:01:11.481Z,9.40
2019-05-28T02:01:58.008Z,9.70
2019-05-28T02:02:57.009Z,9.80
2019-05-28T02:03:56.979Z,9.30
2019-05-28T02:04:57.033Z,9.70
2019-05-28T02:05:56.957Z,9.10
2019-05-28T02:06:56.947Z,10.50
2019-05-28T02:07:56.957Z,9.90
2019-05-28T02:08:56.925Z,9.40
2019-05-28T02:09:56.913Z,10.60
2019-05-28T02:10:56.902Z,8.90
2019-05-28T02:11:56.890Z,9.20
2019-05-28T02:12:56.901Z,8.70
2019-05-28T02:13:56.870Z,9.10
2019-05-28T02:14:56.856Z,9.90
2019-05-28T02:15:56.870Z,10.40
2019-05-28T02:16:56.837Z,9.90
2019-05-28T02:17:56.824Z,10.10
2019-05-28T02:18:56.840Z,9.90
2019-05-28T02:19:56.807Z,9.50
2019-05-28T02:20:56.828Z,10.40
2019-05-28T02:21:56.778Z,12.00
2019-05-28T02:22:56.766Z,11.00
2019-05-28T02:23:56.760Z,11.10
2019-05-28T02:24:56.744Z,9.80
2019-05-28T02:25:56.752Z,9.70
2019-05-28T02:26:56.724Z,9.90
2019-05-28T02:27:56.712Z,9.90
2019-05-28T02:28:56.704Z,9.80
2019-05-28T02:29:56.688Z,9.20
2019-05-28T02:30:56.697Z,10.20
2019-05-28T02:31:56.668Z,9.70
2019-05-28T02:32:56.654Z,9.40
2019-05-28T02:33:56.644Z,8.60
2019-05-28T02:34:56.655Z,9.40
2019-05-28T02:35:56.626Z,9.50
2019-05-28T02:36:56.634Z,9.90
2019-05-28T02:37:56.603Z,10.70
2019-05-28T02:38:56.584Z,10.60
2019-05-28T02:39:56.606Z,10.10
2019-05-28T02:40:56.591Z,10.50
2019-05-28T02:41:56.570Z,11.60
2019-05-28T02:42:56.542Z,11.50
2019-05-28T02:43:56.527Z,12.40
2019-05-28T02:44:56.520Z,13.30
2019-05-28T02:45:56.535Z,10.50
2019-05-28T02:46:56.495Z,12.10
2019-05-28T02:47:56.484Z,13.20
2019-05-28T02:48:56.476Z,13.00
2019-05-28T02:49:56.463Z,12.10
2019-05-28T02:50:56.480Z,12.30
2019-05-28T02:51:56.437Z,11.20
2019-05-28T02:52:56.427Z,10.90
2019-05-28T02:53:56.417Z,13.10
2019-05-28T02:54:56.406Z,10.70
2019-05-28T02:55:56.425Z,11.40
2019-05-28T02:56:56.380Z,12.20
2019-05-28T02:57:56.394Z,12.70
2019-05-28T02:58:56.360Z,13.90
2019-05-28T02:59:56.349Z,13.00
2019-05-28T03:00:56.358Z,12.60
2019-05-28T03:01:56.329Z,11.90
2019-05-28T03:02:56.337Z,11.80
2019-05-28T03:03:56.303Z,11.80
2019-05-28T03:04:56.292Z,10.70
2019-05-28T03:05:56.282Z,10.10
2019-05-28T03:06:56.294Z,11.60
2019-05-28T03:07:56.263Z,10.80
2019-05-28T03:08:56.248Z,10.30
2019-05-28T03:09:56.236Z,11.20
2019-05-28T03:11:02.989Z,10.20
2019-05-28T03:11:57.243Z,9.20
2019-05-28T03:12:56.238Z,9.20
2019-05-28T03:13:56.194Z,10.90
2019-05-28T03:14:56.178Z,11.10
2019-05-28T03:15:56.169Z,10.20
2019-05-28T03:16:56.157Z,10.20
2019-05-28T03:17:56.214Z,10.60
2019-05-28T03:18:56.133Z,7.40
2019-05-28T03:19:56.129Z,10.60
2019-05-28T03:20:56.113Z,9.70
2019-05-28T03:21:56.099Z,10.10
2019-05-28T03:22:56.115Z,8.40
2019-05-28T03:23:56.077Z,10.10
2019-05-28T03:24:56.065Z,10.50
2019-05-28T03:25:56.055Z,8.50
2019-05-28T03:26:56.067Z,7.70
2019-05-28T03:27:56.031Z,10.60
2019-05-28T03:28:56.022Z,10.00
2019-05-28T03:29:56.014Z,12.40
2019-05-28T03:30:56.024Z,11.10
2019-05-28T03:32:08.054Z,10.60
2019-05-28T03:32:57.005Z,11.70
2019-05-28T03:33:55.971Z,9.70
2019-05-28T03:34:55.977Z,8.70
2019-05-28T03:35:55.964Z,9.50
2019-05-28T03:36:55.930Z,8.70
2019-05-28T03:37:55.968Z,10.10
2019-05-28T03:38:55.959Z,9.30
2019-05-28T03:39:55.898Z,9.50
2019-05-28T03:40:55.907Z,9.50
2019-05-28T03:41:55.878Z,8.00
2019-05-28T03:42:55.863Z,9.20
2019-05-28T03:43:55.851Z,9.50
2019-05-28T03:44:55.842Z,8.00
2019-05-28T03:45:55.844Z,7.70
2019-05-28T03:46:55.822Z,7.20
2019-05-28T03:47:55.804Z,8.40
2019-05-28T03:48:55.821Z,7.80
2019-05-28T03:49:55.782Z,7.40
2019-05-28T03:50:55.770Z,7.80
2019-05-28T03:51:55.759Z,7.70
2019-05-28T03:52:55.747Z,8.80
2019-05-28T03:53:55.768Z,8.80
2019-05-28T03:54:55.727Z,8.40
2019-05-28T03:55:55.731Z,8.50
2019-05-28T03:56:55.702Z,9.00
2019-05-28T03:57:55.691Z,9.60
2019-05-28T03:58:55.680Z,9.70
2019-05-28T03:59:57.915Z,10.80
2019-05-28T04:00:55.660Z,10.40
2019-05-28T04:01:55.647Z,11.00
2019-05-28T04:02:55.636Z,10.30
2019-05-28T04:03:55.625Z,10.90
2019-05-28T04:04:55.650Z,9.70
2019-05-28T04:05:55.603Z,9.70
2019-05-28T04:06:55.600Z,9.30
2019-05-28T04:07:55.583Z,9.40
2019-05-28T04:08:55.650Z,9.80
2019-05-28T04:09:55.560Z,9.10
2019-05-28T04:10:55.546Z,9.90
2019-05-28T04:11:55.534Z,9.70
2019-05-28T04:12:55.545Z,10.30
2019-05-28T04:13:55.513Z,10.60
2019-05-28T04:14:55.522Z,9.70
2019-05-28T04:15:55.492Z,10.50
2019-05-28T04:16:55.477Z,9.90
2019-05-28T04:17:55.475Z,10.70
2019-05-28T04:18:55.457Z,10.70
2019-05-28T04:19:55.459Z,9.90
2019-05-28T04:20:55.431Z,9.10
2019-05-28T04:21:55.420Z,11.20
2019-05-28T04:22:55.409Z,9.90
2019-05-28T04:23:55.399Z,10.20
2019-05-28T04:24:55.412Z,10.50
2019-05-28T04:25:55.374Z,10.10
2019-05-28T04:26:55.365Z,9.60
2019-05-28T04:27:55.354Z,9.90
2019-05-28T04:28:55.341Z,9.60
2019-05-28T04:29:55.349Z,9.80
2019-05-28T04:30:55.318Z,9.40
2019-05-28T04:31:55.310Z,9.00
2019-05-28T04:32:55.296Z,10.00
2019-05-28T04:33:58.199Z,10.40
2019-05-28T04:34:55.276Z,10.40
2019-05-28T04:35:55.267Z,9.30
2019-05-28T04:36:55.278Z,10.00
2019-05-28T04:37:55.240Z,9.40
2019-05-28T04:38:55.228Z,9.30
2019-05-28T04:39:55.218Z,8.30
2019-05-28T04:40:55.207Z,9.90
2019-05-28T04:41:55.219Z,8.00
2019-05-28T04:42:55.223Z,10.60
2019-05-28T04:43:55.173Z,10.50
2019-05-28T04:44:55.163Z,10.40
2019-05-28T04:45:55.165Z,10.20
2019-05-28T04:46:55.138Z,9.30
2019-05-28T04:47:55.150Z,10.20
2019-05-28T04:48:55.119Z,9.60
2019-05-28T04:49:55.105Z,8.80
2019-05-28T04:50:55.097Z,9.80
2019-05-28T04:51:55.101Z,9.60
2019-05-28T04:52:55.078Z,10.10
2019-05-28T04:53:55.069Z,10.00
2019-05-28T04:54:55.050Z,10.40
2019-05-28T04:55:55.094Z,10.30
2019-05-28T04:56:55.046Z,9.60
2019-05-28T04:57:55.017Z,9.60
2019-05-28T04:58:55.029Z,10.30
2019-05-28T04:59:54.996Z,9.20
2019-05-28T05:00:54.981Z,10.10
2019-05-28T05:01:54.974Z,9.90
2019-05-28T05:02:59.947Z,10.30
2019-05-28T05:03:55.968Z,10.20
2019-05-28T05:04:54.936Z,11.40
2019-05-28T05:05:54.930Z,10.90
2019-05-28T05:06:54.938Z,11.70
2019-05-28T05:07:54.907Z,9.70
2019-05-28T05:08:54.915Z,10.80
2019-05-28T05:09:54.878Z,9.80
2019-05-28T05:10:54.870Z,11.60
2019-05-28T05:11:54.857Z,11.80
2019-05-28T05:12:54.852Z,13.10
2019-05-28T05:13:54.858Z,11.80
2019-05-28T05:14:54.829Z,12.20
2019-05-28T05:15:54.812Z,12.40
2019-05-28T05:16:54.814Z,11.20
2019-05-28T05:17:54.792Z,10.90
2019-05-28T05:18:54.801Z,10.70
2019-05-28T05:19:54.769Z,10.90
2019-05-28T05:20:54.757Z,11.60
2019-05-28T05:21:54.787Z,13.00
2019-05-28T05:22:54.733Z,13.10
2019-05-28T05:23:54.721Z,12.90
2019-05-28T05:24:54.710Z,13.40
2019-05-28T05:25:54.719Z,14.00
2019-05-28T05:26:54.722Z,14.10
2019-05-28T05:27:54.675Z,14.00
2019-05-28T05:28:54.664Z,14.00
2019-05-28T05:29:54.651Z,13.60
2019-05-28T05:30:54.642Z,13.10
2019-05-28T05:31:54.664Z,13.60
2019-05-28T05:32:54.622Z,13.00
2019-05-28T05:33:54.605Z,13.00
2019-05-28T05:34:54.598Z,12.90
2019-05-28T05:35:54.596Z,13.20
2019-05-28T05:36:54.596Z,13.30
2019-05-28T05:37:54.561Z,13.80
2019-05-28T05:38:54.551Z,13.20
2019-05-28T05:39:54.564Z,13.60
2019-05-28T05:40:54.529Z,12.60
2019-05-28T05:41:54.521Z,13.10
2019-05-28T05:42:54.517Z,14.10
2019-05-28T05:43:54.494Z,14.40
2019-05-28T05:44:54.507Z,12.10
2019-05-28T05:45:54.473Z,15.00
2019-05-28T05:46:54.462Z,14.20
2019-05-28T05:47:54.451Z,13.90
2019-05-28T05:48:54.476Z,15.30
2019-05-28T05:49:54.459Z,14.80
2019-05-28T05:50:54.483Z,15.40
2019-05-28T05:51:54.403Z,17.00
2019-05-28T05:52:54.393Z,16.10
2019-05-28T05:53:54.403Z,15.60
2019-05-28T05:54:54.370Z,14.60
2019-05-28T05:55:54.358Z,15.70
2019-05-28T05:56:54.347Z,14.80
2019-05-28T05:57:54.361Z,15.50
2019-05-28T05:58:54.329Z,14.80
2019-05-28T05:59:54.321Z,15.50
2019-05-28T06:00:54.302Z,15.50
2019-05-28T06:01:54.290Z,14.80
2019-05-28T06:02:54.307Z,14.30
2019-05-28T06:03:54.271Z,14.40
2019-05-28T06:04:54.263Z,14.30
2019-05-28T06:05:54.256Z,13.70
2019-05-28T06:06:54.236Z,14.30
2019-05-28T06:07:54.280Z,15.00
2019-05-28T06:08:54.212Z,14.20
2019-05-28T06:09:54.207Z,13.50
2019-05-28T06:10:54.194Z,13.80
2019-05-28T06:11:54.199Z,12.40
2019-05-28T06:12:54.200Z,14.40
2019-05-28T06:13:54.163Z,13.20
2019-05-28T06:14:54.200Z,12.00
2019-05-28T06:15:54.143Z,11.60
2019-05-28T06:16:54.129Z,11.50
2019-05-28T06:17:54.148Z,11.90
2019-05-28T06:18:54.126Z,11.60
2019-05-28T06:19:54.088Z,11.30
2019-05-28T06:21:07.161Z,11.50
2019-05-28T06:21:55.063Z,11.70
2019-05-28T06:22:54.074Z,11.70
2019-05-28T06:23:54.046Z,11.10
2019-05-28T06:24:54.044Z,10.70
2019-05-28T06:25:54.025Z,10.70
2019-05-28T06:26:54.023Z,10.30
2019-05-28T06:27:53.999Z,10.20
2019-05-28T06:28:54.003Z,11.20
2019-05-28T06:29:53.979Z,10.20
2019-05-28T06:30:53.973Z,10.70
2019-05-28T06:31:53.987Z,9.80
2019-05-28T06:32:53.941Z,9.70
2019-05-28T06:33:57.174Z,10.20
2019-05-28T06:34:53.921Z,9.90
2019-05-28T06:35:53.907Z,9.70
2019-05-28T06:36:53.910Z,9.80
2019-05-28T06:37:53.887Z,10.50
2019-05-28T06:38:53.901Z,10.40
2019-05-28T06:39:53.864Z,11.30
2019-05-28T06:40:53.849Z,11.40
2019-05-28T06:41:53.862Z,11.40
2019-05-28T06:42:53.832Z,10.90
2019-05-28T06:43:53.821Z,11.30
2019-05-28T06:44:53.825Z,11.30
2019-05-28T06:45:53.805Z,10.70
2019-05-28T06:46:53.824Z,10.40
2019-05-28T06:47:53.776Z,10.50
2019-05-28T06:48:53.767Z,11.10
2019-05-28T06:49:53.755Z,10.10
2019-05-28T06:50:53.742Z,10.30
2019-05-28T06:51:53.775Z,10.40
2019-05-28T06:52:53.717Z,10.80
2019-05-28T06:53:53.704Z,10.60
2019-05-28T06:54:53.712Z,10.30
2019-05-28T06:55:53.718Z,10.20
2019-05-28T06:56:53.670Z,9.10
2019-05-28T06:57:53.669Z,8.40
2019-05-28T06:58:53.647Z,8.50
2019-05-28T06:59:53.638Z,8.20
2019-05-28T07:00:53.660Z,8.40
2019-05-28T07:01:53.623Z,7.60
2019-05-28T07:02:53.623Z,9.00
2019-05-28T07:03:53.601Z,8.30
2019-05-28T07:04:53.581Z,7.80
2019-05-28T07:06:06.192Z,8.40
2019-05-28T07:06:54.575Z,7.50
2019-05-28T07:07:53.545Z,8.10
2019-05-28T07:08:53.536Z,7.70
2019-05-28T07:09:53.526Z,7.80
2019-05-28T07:10:57.492Z,7.70
2019-05-28T07:11:53.502Z,6.80
2019-05-28T07:12:53.495Z,7.10
2019-05-28T07:13:53.477Z,7.90
2019-05-28T07:14:53.497Z,7.50
2019-05-28T07:15:53.476Z,7.10
2019-05-28T07:16:53.976Z,7.40
2019-05-28T07:17:53.434Z,6.70
2019-05-28T07:18:53.421Z,7.30
2019-05-28T07:19:53.411Z,7.20
2019-05-28T07:20:53.486Z,7.90
2019-05-28T07:21:53.414Z,7.30
2019-05-28T07:22:53.375Z,7.00
2019-05-28T07:23:53.371Z,7.40
2019-05-28T07:24:53.359Z,6.90
2019-05-28T07:25:53.342Z,7.60
2019-05-28T07:26:53.356Z,6.90
2019-05-28T07:28:09.754Z,7.40
2019-05-28T07:28:54.314Z,7.50
2019-05-28T07:29:53.332Z,7.30
2019-05-28T07:30:53.287Z,7.50
2019-05-28T07:31:53.275Z,7.50
2019-05-28T07:32:53.289Z,7.60
2019-05-28T07:33:53.250Z,7.90
2019-05-28T07:34:53.243Z,7.50
2019-05-28T07:35:53.235Z,7.30
2019-05-28T07:36:53.221Z,7.20
2019-05-28T07:37:53.231Z,7.30
2019-05-28T07:38:53.193Z,6.70
2019-05-28T07:39:53.187Z,6.60
2019-05-28T07:40:53.171Z,6.40
2019-05-28T07:41:53.188Z,6.60
2019-05-28T07:42:53.149Z,6.70
2019-05-28T07:43:53.141Z,6.30
2019-05-28T07:44:53.142Z,5.70
2019-05-28T07:45:53.114Z,5.60
2019-05-28T07:46:53.107Z,5.40
2019-05-28T07:47:53.095Z,5.30
2019-05-28T07:48:53.103Z,5.10
2019-05-28T07:49:53.071Z,4.80
2019-05-28T07:50:53.062Z,4.60
2019-05-28T07:51:53.047Z,4.80
2019-05-28T07:52:53.042Z,4.70
2019-05-28T07:53:53.048Z,4.50
2019-05-28T07:54:53.014Z,4.60
2019-05-28T07:55:53.006Z,4.80
2019-05-28T07:56:53.014Z,4.10
2019-05-28T07:57:52.985Z,4.80
2019-05-28T07:58:52.967Z,4.60
2019-05-28T07:59:52.961Z,4.20
2019-05-28T08:00:52.945Z,4.30
2019-05-28T08:01:52.968Z,4.60
2019-05-28T08:02:52.923Z,4.40
2019-05-28T08:03:52.913Z,4.60
2019-05-28T08:04:52.922Z,4.30
2019-05-28T08:05:52.889Z,4.00
2019-05-28T08:06:54.999Z,4.60
2019-05-28T08:07:52.900Z,4.40
2019-05-28T08:08:52.885Z,4.30
2019-05-28T08:09:52.852Z,3.90
2019-05-28T08:10:52.833Z,4.20
2019-05-28T08:11:52.836Z,4.10
2019-05-28T08:12:52.809Z,4.10
2019-05-28T08:13:52.826Z,4.30
2019-05-28T08:14:52.831Z,4.10
2019-05-28T08:15:52.784Z,3.80
2019-05-28T08:16:53.515Z,3.70
2019-05-28T08:17:52.777Z,4.20
2019-05-28T08:18:52.771Z,4.30
2019-05-28T08:19:52.732Z,4.10
2019-05-28T08:20:52.722Z,3.80
2019-05-28T08:21:52.748Z,3.60
2019-05-28T08:22:52.696Z,3.30
2019-05-28T08:23:52.687Z,4.10
2019-05-28T08:24:54.891Z,4.40
2019-05-28T08:25:52.664Z,4.00
2019-05-28T08:26:52.693Z,3.90
2019-05-28T08:27:52.643Z,3.80
2019-05-28T08:28:52.635Z,4.00
2019-05-28T08:29:52.639Z,3.80
2019-05-28T08:30:52.606Z,4.00
2019-05-28T08:31:52.636Z,3.90
2019-05-28T08:32:52.591Z,4.30
2019-05-28T08:33:52.584Z,4.10
2019-05-28T08:35:05.119Z,4.10
2019-05-28T08:35:53.550Z,3.90
2019-05-28T08:37:05.422Z,4.20
2019-05-28T08:37:53.551Z,4.10
2019-05-28T08:38:52.519Z,3.60
2019-05-28T08:39:52.507Z,4.30
2019-05-28T08:40:52.498Z,4.00
2019-05-28T08:41:52.567Z,3.90
2019-05-28T08:42:52.479Z,4.10
2019-05-28T08:43:52.462Z,3.80
2019-05-28T08:44:52.449Z,3.80
2019-05-28T08:45:52.441Z,3.50
2019-05-28T08:46:52.450Z,4.20
2019-05-28T08:47:52.456Z,3.80
2019-05-28T08:48:52.423Z,3.70
2019-05-28T08:49:52.397Z,3.20
2019-05-28T08:50:52.383Z,4.10
2019-05-28T08:51:52.520Z,3.80
2019-05-28T08:52:52.379Z,3.70
2019-05-28T08:53:52.357Z,3.60
2019-05-28T08:54:52.344Z,3.80
2019-05-28T08:55:52.328Z,3.50
2019-05-28T08:56:52.320Z,3.60
2019-05-28T08:57:52.329Z,3.50
2019-05-28T08:58:52.296Z,3.30
2019-05-28T08:59:52.283Z,3.10
2019-05-28T09:00:52.288Z,3.40
2019-05-28T09:01:52.267Z,3.60
2019-05-28T09:02:52.252Z,3.40
2019-05-28T09:03:52.265Z,3.30
2019-05-28T09:04:52.289Z,3.30
2019-05-28T09:05:52.242Z,3.80
2019-05-28T09:06:52.212Z,3.90
2019-05-28T09:07:52.198Z,3.40
2019-05-28T09:08:52.189Z,3.90
2019-05-28T09:09:52.173Z,3.50
2019-05-28T09:10:52.206Z,3.50
2019-05-28T09:11:52.156Z,3.30
2019-05-28T09:12:52.150Z,3.40
2019-05-28T09:13:52.125Z,3.20
2019-05-28T09:14:56.130Z,3.50
2019-05-28T09:15:52.144Z,3.50
2019-05-28T09:16:52.090Z,3.10
2019-05-28T09:17:52.079Z,3.30
2019-05-28T09:18:52.087Z,3.90
2019-05-28T09:19:52.059Z,4.00
2019-05-28T09:20:52.126Z,3.50
2019-05-28T09:21:52.054Z,3.40
2019-05-28T09:22:52.089Z,3.60
2019-05-28T09:23:52.019Z,3.40
2019-05-28T09:24:52.025Z,3.90
2019-05-28T09:25:51.995Z,3.20
2019-05-28T09:26:51.979Z,3.30
2019-05-28T09:27:51.971Z,4.30
2019-05-28T09:28:52.047Z,3.30
2019-05-28T09:29:55.203Z,3.60
2019-05-28T09:30:51.936Z,4.00
2019-05-28T09:31:51.928Z,4.00
2019-05-28T09:32:51.956Z,3.60
2019-05-28T09:33:51.932Z,3.80
2019-05-28T09:34:51.890Z,4.40
2019-05-28T09:36:07.179Z,3.90
2019-05-28T09:36:52.865Z,3.80
2019-05-28T09:37:51.880Z,4.00
2019-05-28T09:38:51.874Z,3.70
2019-05-28T09:39:51.835Z,4.10
2019-05-28T09:40:51.830Z,4.00
2019-05-28T09:41:51.815Z,4.50
2019-05-28T09:42:51.805Z,4.80
2019-05-28T09:43:51.817Z,4.50
2019-05-28T09:44:51.781Z,4.50
2019-05-28T09:45:51.770Z,4.10
2019-05-28T09:46:51.763Z,5.20
2019-05-28T09:47:55.032Z,4.50
2019-05-28T09:48:51.751Z,4.40
2019-05-28T09:49:51.867Z,4.30
2019-05-28T09:50:52.059Z,4.40
2019-05-28T09:51:51.704Z,4.40
2019-05-28T09:52:54.887Z,4.40
2019-05-28T09:53:51.705Z,4.80
2019-05-28T09:54:51.670Z,4.30
2019-05-28T09:55:51.698Z,4.60
2019-05-28T09:56:51.654Z,4.60
2019-05-28T09:57:51.650Z,4.70
2019-05-28T09:58:51.629Z,4.30
2019-05-28T09:59:51.627Z,5.00
2019-05-28T10:00:58.390Z,4.70
2019-05-28T10:01:52.602Z,4.30
2019-05-28T10:02:51.614Z,4.40
2019-05-28T10:03:51.724Z,4.60
2019-05-28T10:04:51.796Z,4.30
2019-05-28T10:06:01.880Z,4.30
2019-05-28T10:06:52.627Z,5.00
2019-05-28T10:07:51.530Z,4.00
2019-05-28T10:08:51.520Z,4.30
2019-05-28T10:09:51.514Z,4.50
2019-05-28T10:10:51.525Z,5.30
2019-05-28T10:11:51.495Z,4.60
2019-05-28T10:12:51.491Z,4.00
2019-05-28T10:13:51.464Z,3.80
2019-05-28T10:14:51.448Z,4.50
2019-05-28T10:15:51.532Z,5.40
2019-05-28T10:16:51.426Z,5.40
2019-05-28T10:17:51.427Z,5.10
2019-05-28T10:18:51.413Z,4.60
2019-05-28T10:19:51.416Z,4.40
2019-05-28T10:20:51.394Z,5.10
2019-05-28T10:21:51.382Z,5.20
2019-05-28T10:22:51.362Z,6.00
2019-05-28T10:23:51.380Z,5.40
2019-05-28T10:24:51.366Z,6.20
2019-05-28T10:25:51.329Z,5.00
2019-05-28T10:26:51.322Z,5.10
2019-05-28T10:28:01.033Z,4.50
2019-05-28T10:28:52.331Z,4.90
2019-05-28T10:29:51.286Z,5.30
2019-05-28T10:30:51.276Z,4.90
2019-05-28T10:31:51.264Z,5.00
2019-05-28T10:32:51.252Z,4.30
2019-05-28T10:33:51.247Z,5.10
2019-05-28T10:35:03.325Z,5.40
2019-05-28T10:35:52.215Z,5.50
2019-05-28T10:36:51.233Z,5.20
2019-05-28T10:37:51.230Z,5.70
2019-05-28T10:38:51.226Z,5.10
2019-05-28T10:39:51.174Z,5.30
2019-05-28T10:40:51.186Z,5.50
2019-05-28T10:41:51.174Z,5.10
2019-05-28T10:42:51.143Z,6.90
2019-05-28T10:43:51.126Z,6.70
2019-05-28T10:44:51.126Z,6.80
2019-05-28T10:45:51.235Z,5.90
2019-05-28T10:46:51.094Z,5.90
2019-05-28T10:47:51.084Z,5.70
2019-05-28T10:48:51.073Z,5.20
2019-05-28T10:49:51.244Z,4.70
2019-05-28T10:50:51.067Z,4.90
2019-05-28T10:51:51.065Z,5.20
2019-05-28T10:52:51.031Z,5.00
2019-05-28T10:53:51.031Z,5.30
2019-05-28T10:54:51.020Z,5.10
2019-05-28T10:55:50.992Z,5.20
2019-05-28T10:56:50.994Z,5.30
2019-05-28T10:57:50.971Z,4.70
2019-05-28T10:58:50.963Z,4.50
2019-05-28T10:59:50.972Z,4.60
2019-05-28T11:00:50.933Z,4.30
2019-05-28T11:01:50.922Z,4.20
2019-05-28T11:02:50.938Z,4.00
2019-05-28T11:03:50.903Z,4.60
2019-05-28T11:04:51.056Z,4.80
2019-05-28T11:05:50.905Z,5.00
2019-05-28T11:06:52.369Z,4.80
2019-05-28T11:07:50.855Z,4.70
2019-05-28T11:08:50.844Z,4.60
2019-05-28T11:09:50.838Z,4.70
2019-05-28T11:10:50.843Z,3.70
2019-05-28T11:11:50.810Z,3.70
2019-05-28T11:12:50.802Z,4.00
2019-05-28T11:13:53.281Z,3.60
2019-05-28T11:14:50.804Z,4.80
2019-05-28T11:15:50.768Z,4.70
2019-05-28T11:16:50.760Z,4.80
2019-05-28T11:17:50.756Z,5.00
2019-05-28T11:18:50.738Z,4.80
2019-05-28T11:19:50.759Z,3.90
2019-05-28T11:20:50.732Z,4.00
2019-05-28T11:21:50.700Z,4.10
2019-05-28T11:22:50.743Z,4.00
2019-05-28T11:23:50.676Z,4.10
2019-05-28T11:24:50.692Z,3.90
2019-05-28T11:25:50.692Z,4.20
2019-05-28T11:26:50.651Z,3.90
2019-05-28T11:27:50.648Z,3.90
2019-05-28T11:28:50.618Z,4.10
2019-05-28T11:29:50.609Z,4.70
2019-05-28T11:30:50.623Z,3.90
2019-05-28T11:31:50.609Z,4.10
2019-05-28T11:32:50.583Z,4.20
2019-05-28T11:33:50.563Z,4.40
2019-05-28T11:34:50.552Z,4.70
2019-05-28T11:35:50.562Z,4.50
2019-05-28T11:36:50.538Z,3.70
2019-05-28T11:37:50.522Z,4.70
2019-05-28T11:38:50.527Z,4.40
2019-05-28T11:39:50.498Z,4.60
2019-05-28T11:40:50.520Z,4.20
2019-05-28T11:41:50.473Z,5.10
2019-05-28T11:42:50.463Z,5.00
2019-05-28T11:43:50.479Z,4.60
2019-05-28T11:44:50.454Z,4.70
2019-05-28T11:45:50.444Z,4.10
2019-05-28T11:46:50.457Z,5.00
2019-05-28T11:47:51.296Z,4.70
2019-05-28T11:48:50.418Z,4.80
2019-05-28T11:49:50.413Z,4.90
2019-05-28T11:50:50.401Z,4.70
2019-05-28T11:51:50.443Z,4.40
2019-05-28T11:52:50.501Z,4.50
2019-05-28T11:53:50.337Z,4.80
2019-05-28T11:54:50.352Z,4.90
2019-05-28T11:55:50.314Z,5.00
2019-05-28T11:56:50.302Z,5.20
2019-05-28T11:57:50.307Z,4.70
2019-05-28T11:58:50.354Z,4.30
2019-05-28T11:59:50.305Z,4.70
2019-05-28T12:00:50.263Z,4.50
2019-05-28T12:01:50.260Z,4.70
2019-05-28T12:02:50.238Z,4.90
2019-05-28T12:03:50.274Z,4.60
2019-05-28T12:04:50.249Z,4.70
2019-05-28T12:05:50.216Z,4.70
2019-05-28T12:06:50.200Z,5.10
2019-05-28T12:07:51.831Z,4.40
2019-05-28T12:08:50.170Z,4.40
2019-05-28T12:09:50.190Z,4.60
2019-05-28T12:10:50.147Z,4.10
2019-05-28T12:11:50.132Z,4.00
2019-05-28T12:12:50.124Z,4.10
2019-05-28T12:13:50.127Z,5.00
2019-05-28T12:14:50.131Z,4.60
2019-05-28T12:15:50.093Z,5.20
2019-05-28T12:16:50.121Z,4.50
2019-05-28T12:17:50.074Z,6.10
2019-05-28T12:18:50.055Z,5.10
2019-05-28T12:19:50.043Z,11.30
2019-05-28T12:20:50.032Z,10.50
2019-05-28T12:21:50.069Z,5.50
2019-05-28T12:23:08.934Z,5.30
2019-05-28T12:23:51.005Z,4.20
2019-05-28T12:24:49.988Z,4.50
2019-05-28T12:25:49.990Z,4.40
2019-05-28T12:26:49.979Z,4.00
2019-05-28T12:27:49.953Z,3.80
2019-05-28T12:28:49.975Z,4.00
2019-05-28T12:29:52.201Z,4.70
2019-05-28T12:30:49.921Z,4.30
2019-05-28T12:31:49.977Z,4.50
2019-05-28T12:32:49.924Z,4.50
2019-05-28T12:33:49.913Z,3.90
2019-05-28T12:34:49.874Z,4.10
2019-05-28T12:35:49.864Z,4.00
2019-05-28T12:36:49.853Z,4.10
2019-05-28T12:37:50.825Z,4.50
2019-05-28T12:38:49.834Z,4.80
2019-05-28T12:39:49.854Z,4.90
2019-05-28T12:40:49.837Z,4.20
2019-05-28T12:42:01.438Z,3.30
2019-05-28T12:42:50.786Z,3.20
2019-05-28T12:43:49.954Z,2.80
2019-05-28T12:45:08.013Z,2.30
2019-05-28T12:45:50.775Z,2.50
2019-05-28T12:46:49.747Z,2.00
2019-05-28T12:48:07.442Z,2.00
2019-05-28T12:48:50.762Z,2.50
2019-05-28T12:49:49.712Z,2.20
2019-05-28T12:50:49.705Z,2.00
2019-05-28T12:51:49.725Z,2.70
2019-05-28T12:52:49.672Z,1.70
2019-05-28T12:53:51.424Z,1.70
2019-05-28T12:54:49.651Z,1.90
2019-05-28T12:55:49.664Z,2.00
2019-05-28T12:56:49.640Z,1.60
2019-05-28T12:57:49.845Z,1.60
2019-05-28T12:58:49.606Z,1.50
2019-05-28T12:59:49.595Z,1.40
2019-05-28T13:00:49.593Z,1.40
2019-05-28T13:01:49.572Z,1.50
2019-05-28T13:02:49.594Z,1.30
2019-05-28T13:03:51.889Z,1.90
2019-05-28T13:04:49.587Z,1.80
2019-05-28T13:05:49.533Z,3.20
2019-05-28T13:06:49.549Z,3.50
2019-05-28T13:08:06.408Z,3.60
2019-05-28T13:08:50.493Z,3.40